Weather at Pincher Creek/Cooks Aerodrome [CLOSED]

Public forecast

Using degrees Celsius for public forecast. Weather courtesy of forecast.io.

Closest aviation weather report (METAR) to Pincher Creek/Cooks Aerodrome

Closest report is Pincher Creek Airport, 2.4 nm (4.4 km) W.

2024/05/22 21:51 (retrieved 11 minutes ago)

CZPC 222151Z AUTO 03019G28KT 9SM -RA SCT021 BKN026 BKN031 OVC041 08/05 A2982 RMK LTNG DIST S SW SLP112

Closest aviation forecast (TAF) to Pincher Creek/Cooks Aerodrome

Closest forecast is Lethbridge County Airport, 44.8 nm (83.0 km) E.

2024/05/22 20:45 Ammendment (retrieved 1 hour ago)

TAF AMD TAF AMD CYQL 222043Z 2220/2306 06015G25KT P6SM BKN020 OVC100 TEMPO 2220/2223 SCT020 BKN100 FM222300 04012G22KT P6SM BKN025 OVC080 TEMPO 2223/2302 P6SM -SHRA OVC020 FM230200 04012KT P6SM BKN040 BECMG 2303/2305 FEW040 FM230500 02005KT P6SM SKC RMK NXT FCST BY 230000Z